Campina Grande, Brazil
Current Conditions -  °F | °C
As of 5:00 PM on Friday 24 Oct 2014 (Local Time) from SBKG Reporting Station
Few Clouds Few Clouds  
Wind Chill: 77°   Ceiling: Unl
Heat Index: 79°   Visibility: 6mi
Dew Point: 63°   Wind: 15mph
Humidity: 61%   Direction: 120°ESE
Pressure: 29.94"   Gusts: NA
Location:  7.23°S, 35.88°W
Report Text: SBKG 242000Z 12013KT 9999 FEW027 25/17 Q1014
Loading
Personal Weather Stations






























Interactive Weather Map
Tropical Storm Tracking
New forecast layout! Learn more

10-Day Weather Forecast

Advertisements
Track Severe Weather on mobile